createdAt,value
2022-09-26T00:00:13.826Z,12.10
2022-09-26T00:04:22.746Z,12.70
2022-09-26T00:08:20.646Z,12.60
2022-09-26T00:12:17.658Z,11.70
2022-09-26T00:16:15.594Z,11.87
2022-09-26T00:20:12.729Z,11.00
2022-09-26T00:24:10.046Z,10.70
2022-09-26T00:28:06.965Z,11.17
2022-09-26T00:32:03.911Z,10.10
2022-09-26T00:36:01.190Z,10.37
2022-09-26T00:39:58.154Z,9.53
2022-09-26T00:43:57.561Z,10.30
2022-09-26T00:48:04.208Z,10.13
2022-09-26T00:52:20.609Z,10.80
2022-09-26T00:56:26.985Z,10.10
2022-09-26T01:00:24.103Z,9.80
2022-09-26T01:04:26.043Z,10.30
2022-09-26T01:08:33.464Z,10.63
2022-09-26T01:12:30.631Z,10.27
2022-09-26T01:16:31.813Z,10.30
2022-09-26T01:20:45.997Z,10.03
2022-09-26T01:25:07.519Z,9.57
2022-09-26T01:29:41.862Z,9.70
2022-09-26T01:34:04.355Z,8.73
2022-09-26T01:38:35.856Z,8.20
2022-09-26T01:42:52.872Z,8.23
2022-09-26T01:46:59.779Z,8.00
2022-09-26T01:51:23.738Z,7.47
2022-09-26T01:55:35.932Z,7.80
2022-09-26T01:59:41.639Z,7.87
2022-09-26T02:03:46.264Z,7.23
2022-09-26T02:07:53.614Z,7.60
2022-09-26T02:11:59.353Z,7.60
2022-09-26T02:16:07.355Z,7.03
2022-09-26T02:20:27.006Z,7.57
2022-09-26T02:24:24.746Z,7.70
2022-09-26T02:28:22.270Z,8.20
2022-09-26T02:32:27.136Z,7.80
2022-09-26T02:36:24.525Z,7.70
2022-09-26T02:40:33.377Z,7.53
2022-09-26T02:45:25.899Z,7.63
2022-09-26T02:49:58.896Z,7.33
2022-09-26T02:54:39.138Z,7.83
2022-09-26T02:59:09.239Z,7.80
2022-09-26T03:03:19.960Z,6.80
2022-09-26T03:07:30.779Z,6.97
2022-09-26T03:11:30.612Z,6.80
2022-09-26T03:15:31.753Z,6.50
2022-09-26T03:20:15.031Z,6.40
2022-09-26T03:24:13.787Z,7.10
2022-09-26T03:28:12.373Z,6.20
2022-09-26T03:32:10.322Z,7.13
2022-09-26T03:36:09.620Z,6.60
2022-09-26T03:40:12.332Z,7.10
2022-09-26T03:44:32.524Z,6.80
2022-09-26T03:48:52.680Z,7.13
2022-09-26T03:52:49.729Z,7.23
2022-09-26T03:56:46.700Z,7.30
2022-09-26T04:00:43.741Z,7.20
2022-09-26T04:04:40.830Z,6.93
2022-09-26T04:08:42.390Z,8.13
2022-09-26T04:12:41.097Z,7.20
2022-09-26T04:16:38.512Z,7.60
2022-09-26T04:21:10.273Z,7.90
2022-09-26T04:25:10.249Z,7.53
2022-09-26T04:29:11.318Z,7.83
2022-09-26T04:33:26.807Z,7.63
2022-09-26T04:37:37.161Z,8.23
2022-09-26T04:41:34.696Z,8.63
2022-09-26T04:45:31.876Z,8.93
2022-09-26T04:49:29.934Z,9.00
2022-09-26T04:53:27.563Z,8.27
2022-09-26T04:57:33.074Z,9.20
2022-09-26T05:01:30.170Z,9.43
2022-09-26T05:05:31.377Z,8.63
2022-09-26T05:09:30.767Z,9.13
2022-09-26T05:13:38.935Z,8.83
2022-09-26T05:17:37.711Z,9.20
2022-09-26T05:21:37.096Z,8.83
2022-09-26T05:26:00.050Z,9.33
2022-09-26T05:29:56.997Z,9.03
2022-09-26T05:33:58.396Z,10.10
2022-09-26T05:38:03.480Z,9.50
2022-09-26T05:42:04.667Z,9.27
2022-09-26T05:46:06.043Z,10.23
2022-09-26T05:50:11.320Z,10.17
2022-09-26T05:54:10.427Z,9.37
2022-09-26T05:58:09.560Z,9.80
2022-09-26T06:02:42.143Z,9.20
2022-09-26T06:06:45.839Z,7.93
2022-09-26T06:10:47.013Z,9.70
2022-09-26T06:14:47.875Z,9.23
2022-09-26T06:18:47.018Z,8.77
2022-09-26T06:22:44.116Z,9.57
2022-09-26T06:26:42.439Z,9.10
2022-09-26T06:30:40.149Z,10.03
2022-09-26T06:34:42.547Z,9.93
2022-09-26T06:39:10.396Z,10.70
2022-09-26T06:43:07.585Z,10.20
2022-09-26T06:47:23.568Z,9.50
2022-09-26T06:51:31.559Z,9.10
2022-09-26T06:55:28.515Z,9.20
2022-09-26T06:59:25.934Z,7.70
2022-09-26T07:03:31.753Z,6.77
2022-09-26T07:07:53.358Z,5.60
2022-09-26T07:12:14.310Z,5.90
2022-09-26T07:16:13.336Z,5.60
2022-09-26T07:20:29.790Z,4.80
2022-09-26T07:24:46.329Z,4.53
2022-09-26T07:28:44.729Z,5.30
2022-09-26T07:32:47.898Z,4.67
2022-09-26T07:36:59.971Z,4.10
2022-09-26T07:41:00.989Z,3.70
2022-09-26T07:45:29.707Z,3.30
2022-09-26T07:49:53.627Z,2.90
2022-09-26T07:54:06.985Z,2.80
2022-09-26T07:58:24.166Z,3.27
2022-09-26T08:02:42.918Z,3.00
2022-09-26T08:06:42.237Z,3.10
2022-09-26T08:10:39.406Z,2.97
2022-09-26T08:14:55.976Z,2.70
2022-09-26T08:19:06.006Z,3.00
2022-09-26T08:23:03.497Z,2.80
2022-09-26T08:27:01.119Z,3.03
2022-09-26T08:31:03.543Z,2.73
2022-09-26T08:35:01.022Z,2.60
2022-09-26T08:39:05.621Z,2.88
2022-09-26T08:43:41.457Z,2.60
2022-09-26T08:48:21.806Z,2.15
2022-09-26T08:52:56.365Z,2.10
2022-09-26T08:57:00.407Z,2.83
2022-09-26T09:01:10.047Z,3.00
2022-09-26T09:05:33.062Z,2.38
2022-09-26T09:09:31.256Z,1.90
2022-09-26T09:14:09.920Z,2.10
2022-09-26T09:18:57.911Z,1.90
2022-09-26T09:23:39.091Z,2.15
2022-09-26T09:27:54.791Z,1.73
2022-09-26T09:31:56.701Z,1.88
2022-09-26T09:36:34.674Z,1.90
2022-09-26T09:41:18.341Z,2.55
2022-09-26T09:45:41.892Z,1.95
2022-09-26T09:49:38.875Z,1.80
2022-09-26T09:53:49.756Z,1.95
2022-09-26T09:58:21.896Z,1.90
2022-09-26T10:02:31.239Z,1.60
2022-09-26T10:06:44.701Z,1.60
2022-09-26T10:11:30.919Z,1.60
2022-09-26T10:15:27.918Z,1.63
2022-09-26T10:19:44.237Z,2.25
2022-09-26T10:23:49.014Z,1.48
2022-09-26T10:28:31.184Z,1.70
2022-09-26T10:32:31.040Z,1.48
2022-09-26T10:36:48.302Z,1.67
2022-09-26T10:40:55.392Z,1.50
2022-09-26T10:44:57.730Z,1.42
2022-09-26T10:49:17.170Z,1.60
2022-09-26T10:53:40.229Z,1.70
2022-09-26T10:57:53.404Z,1.50
2022-09-26T11:01:57.361Z,5.22
2022-09-26T11:05:57.303Z,1.90
2022-09-26T11:10:14.592Z,1.73
2022-09-26T11:14:32.776Z,1.55
2022-09-26T11:19:15.547Z,1.70
2022-09-26T11:23:55.376Z,1.20
2022-09-26T11:28:12.721Z,1.67
2022-09-26T11:32:41.251Z,1.60
2022-09-26T11:37:50.869Z,1.67
2022-09-26T11:42:15.259Z,1.38
2022-09-26T11:46:53.777Z,1.17
2022-09-26T11:51:56.323Z,1.10
2022-09-26T11:56:27.111Z,1.10
2022-09-26T12:00:50.519Z,1.20
2022-09-26T12:05:27.429Z,1.58
2022-09-26T12:10:07.707Z,1.23
2022-09-26T12:14:41.030Z,1.20
2022-09-26T12:19:16.471Z,1.20
2022-09-26T12:23:43.801Z,1.25
2022-09-26T12:27:50.559Z,1.40
2022-09-26T12:32:05.559Z,1.35
2022-09-26T12:36:48.715Z,1.30
2022-09-26T12:41:14.406Z,1.45
2022-09-26T12:45:31.936Z,1.40
2022-09-26T12:50:29.288Z,1.48
2022-09-26T12:54:48.422Z,1.38
2022-09-26T12:59:38.827Z,1.40
2022-09-26T13:04:12.588Z,1.60
2022-09-26T13:08:19.289Z,1.33
2022-09-26T13:12:58.955Z,1.40
2022-09-26T13:17:13.557Z,1.58
2022-09-26T13:21:19.251Z,1.65
2022-09-26T13:25:21.837Z,2.55
2022-09-26T13:29:27.128Z,3.08
2022-09-26T13:33:52.706Z,1.90
2022-09-26T13:38:02.125Z,2.63
2022-09-26T13:42:23.213Z,1.50
2022-09-26T13:47:01.455Z,1.30
2022-09-26T13:51:18.483Z,1.50
2022-09-26T13:55:21.867Z,1.48
2022-09-26T13:59:18.916Z,1.25
2022-09-26T14:03:16.779Z,1.38
2022-09-26T14:07:57.357Z,1.98
2022-09-26T14:12:20.376Z,1.30
2022-09-26T14:16:34.716Z,1.48
2022-09-26T14:20:49.529Z,1.50
2022-09-26T14:24:53.812Z,1.40
2022-09-26T14:28:56.649Z,1.40
2022-09-26T14:33:10.328Z,1.60
2022-09-26T14:37:23.649Z,1.40
2022-09-26T14:41:24.336Z,1.42
2022-09-26T14:45:45.439Z,1.55
2022-09-26T14:49:43.335Z,2.25
2022-09-26T14:53:54.068Z,2.00
2022-09-26T14:57:51.310Z,2.03
2022-09-26T15:01:48.273Z,1.63
2022-09-26T15:05:47.684Z,1.20
2022-09-26T15:10:26.680Z,1.48
2022-09-26T15:14:41.169Z,1.63
2022-09-26T15:18:41.470Z,1.73
2022-09-26T15:22:40.855Z,1.60
2022-09-26T15:26:37.838Z,1.90
2022-09-26T15:30:40.873Z,1.70
2022-09-26T15:34:39.976Z,1.55
2022-09-26T15:38:37.561Z,1.40
2022-09-26T15:42:53.117Z,1.30
2022-09-26T15:46:51.245Z,1.60
2022-09-26T15:51:01.573Z,1.40
2022-09-26T15:54:59.015Z,1.80
2022-09-26T15:59:07.425Z,1.60
2022-09-26T16:03:31.058Z,2.25
2022-09-26T16:07:31.840Z,1.67
2022-09-26T16:11:29.222Z,1.60
2022-09-26T16:15:31.226Z,1.30
2022-09-26T16:19:35.796Z,1.30
2022-09-26T16:23:56.653Z,1.50
2022-09-26T16:28:19.095Z,1.40
2022-09-26T16:32:21.185Z,1.58
2022-09-26T16:36:24.176Z,1.50
2022-09-26T16:40:21.329Z,1.50
2022-09-26T16:44:30.293Z,1.80
2022-09-26T16:48:50.044Z,2.00
2022-09-26T16:52:47.006Z,3.58
2022-09-26T16:56:46.466Z,4.10
2022-09-26T17:01:02.243Z,2.73
2022-09-26T17:04:59.260Z,3.77
2022-09-26T17:09:03.149Z,4.13
2022-09-26T17:13:02.698Z,4.57
2022-09-26T17:17:00.239Z,3.73
2022-09-26T17:20:59.257Z,4.17
2022-09-26T17:24:56.329Z,5.70
2022-09-26T17:28:54.439Z,5.03
2022-09-26T17:32:54.464Z,4.13
2022-09-26T17:36:53.892Z,3.70
2022-09-26T17:40:50.985Z,4.50
2022-09-26T17:44:48.336Z,2.80
2022-09-26T17:48:45.280Z,4.60
2022-09-26T17:52:42.269Z,4.00
2022-09-26T17:56:40.047Z,3.63
2022-09-26T18:00:40.405Z,4.30
2022-09-26T18:04:37.438Z,2.87
2022-09-26T18:08:38.914Z,2.23
2022-09-26T18:12:36.193Z,3.20
2022-09-26T18:16:33.210Z,3.73
2022-09-26T18:20:38.673Z,3.13
2022-09-26T18:24:35.670Z,4.83
2022-09-26T18:28:32.883Z,3.60
2022-09-26T18:32:39.034Z,3.30
2022-09-26T18:36:35.979Z,3.40
2022-09-26T18:40:40.207Z,3.93
2022-09-26T18:44:37.699Z,4.00
2022-09-26T18:48:36.475Z,4.03
2022-09-26T18:52:33.459Z,3.60
2022-09-26T18:56:49.052Z,4.10
2022-09-26T19:00:46.980Z,3.90
2022-09-26T19:04:43.933Z,3.50
2022-09-26T19:08:47.502Z,3.17
2022-09-26T19:12:44.458Z,3.30
2022-09-26T19:16:46.103Z,3.60
2022-09-26T19:20:43.229Z,3.10
2022-09-26T19:24:55.488Z,2.70
2022-09-26T19:28:55.168Z,2.80
2022-09-26T19:32:56.952Z,2.93
2022-09-26T19:36:54.029Z,2.67
2022-09-26T19:40:54.412Z,2.77
2022-09-26T19:44:51.573Z,2.30
2022-09-26T19:48:48.696Z,2.40
2022-09-26T19:52:46.344Z,2.50
2022-09-26T19:56:44.167Z,2.43
2022-09-26T20:00:44.758Z,2.00
2022-09-26T20:04:42.540Z,2.10
2022-09-26T20:08:39.523Z,2.00
2022-09-26T20:12:36.474Z,2.20
2022-09-26T20:16:38.641Z,2.10
2022-09-26T20:20:38.200Z,2.40
2022-09-26T20:24:39.794Z,2.27
2022-09-26T20:28:37.501Z,2.30
2022-09-26T20:32:36.354Z,2.30
2022-09-26T20:36:35.737Z,2.60
2022-09-26T20:40:34.910Z,2.17
2022-09-26T20:44:33.804Z,2.17
2022-09-26T20:48:34.132Z,1.90
2022-09-26T20:52:31.094Z,1.80
2022-09-26T20:56:28.880Z,2.03
2022-09-26T21:00:25.879Z,1.60
2022-09-26T21:04:31.995Z,1.97
2022-09-26T21:08:30.769Z,1.70
2022-09-26T21:12:27.694Z,1.70
2022-09-26T21:16:25.159Z,1.70
2022-09-26T21:20:32.100Z,2.83
2022-09-26T21:24:58.345Z,1.80
2022-09-26T21:28:56.442Z,1.70
2022-09-26T21:33:00.237Z,1.40
2022-09-26T21:36:59.096Z,1.30
2022-09-26T21:41:00.303Z,1.10
2022-09-26T21:45:03.804Z,1.20
2022-09-26T21:49:00.771Z,1.10
2022-09-26T21:53:05.987Z,1.03
2022-09-26T21:57:18.506Z,1.17
2022-09-26T22:01:15.793Z,1.10
2022-09-26T22:05:13.210Z,1.17
2022-09-26T22:09:10.378Z,1.10
2022-09-26T22:13:07.506Z,1.10
2022-09-26T22:17:04.500Z,0.90
2022-09-26T22:21:04.823Z,1.10
2022-09-26T22:25:04.250Z,1.27
2022-09-26T22:29:01.224Z,1.37
2022-09-26T22:32:58.181Z,1.40
2022-09-26T22:36:55.269Z,1.10
2022-09-26T22:40:57.583Z,0.97
2022-09-26T22:44:54.578Z,1.10
2022-09-26T22:48:51.561Z,1.10
2022-09-26T22:52:48.593Z,1.40
2022-09-26T22:56:45.568Z,1.20
2022-09-26T23:00:42.808Z,1.40
2022-09-26T23:04:48.786Z,1.23
2022-09-26T23:08:47.231Z,1.40
2022-09-26T23:12:44.228Z,1.53
2022-09-26T23:16:41.269Z,1.47
2022-09-26T23:20:43.244Z,1.47
2022-09-26T23:24:40.216Z,1.60
2022-09-26T23:28:37.197Z,1.70
2022-09-26T23:32:34.145Z,1.50
2022-09-26T23:36:31.342Z,1.80
2022-09-26T23:40:29.698Z,1.70
2022-09-26T23:44:27.751Z,1.53
2022-09-26T23:48:24.788Z,1.70
2022-09-26T23:52:21.757Z,1.70
2022-09-26T23:56:18.999Z,2.03
